Katowice International Airport

EPKT · śląskie, Polska

Historia METAR EPKT · Międzynarodowy Port Lotniczy Katowice

Poniżej widzisz METAR-y z ostatnich kilku dni. Wybierz rok, aby przeglądać starsze METAR-y, począwszy od roku 2007.

9 grudnia 2022

Czas Kod Pogoda Temp. Widoczność Sufit Wiatr METAR/SPECI
18:00
I
0 °C 1,5 km 700 ft 040° 040° 5 kt METAR EPKT 091700Z 04005KT 1500 RASN BR SCT002 BKN007 00/00 Q1004
17:30
I
0 °C 2,1 km 1.100 ft 060° 060° 6 kt METAR EPKT 091630Z 06006KT 2100 -RASN BR SCT003 BKN011 00/00 Q1005 RESNRA
17:00
L
0 °C 1,4 km 1.100 ft 050° 050° 5 kt METAR EPKT 091600Z 05005KT 1400 R26/P2000N SNRA BR OVC011 00/00 Q1005
16:30
M
1 °C 5 km 2.100 ft 070° 070° 5 kt METAR EPKT 091530Z 07005KT 5000 -SN BR FEW004 SCT015 BKN021 01/00 Q1005
16:00
M
1 °C 7 km 2.200 ft 050° 050° 5 kt METAR EPKT 091500Z 05005KT 7000 -RA FEW017 OVC022 01/M00 Q1005
15:30
M
2 °C 10 km+ 2.500 ft 050° 050° 5 kt METAR EPKT 091430Z 05005KT 9999 -RA FEW019 BKN025 02/M00 Q1006
15:00
V
2 °C 10 km+ 3.800 ft 040° 040° 5 kt METAR EPKT 091400Z 04005KT 9999 OVC038 02/M00 Q1005
14:30
V
2 °C 10 km+ - 050° 050° 5 kt METAR EPKT 091330Z 05005KT 9999 FEW043 02/M00 Q1006
14:00
V
2 °C 10 km+ 4.100 ft 040° 040° 3 kt METAR EPKT 091300Z 04003KT 350V060 9999 BKN041 02/M00 Q1006
13:30
V
2 °C 9 km 3.600 ft 090° 090° 5 kt METAR EPKT 091230Z 09005KT 9000 OVC036 02/M00 Q1006
13:00
M
2 °C 7 km 3.000 ft 110° 110° 5 kt METAR EPKT 091200Z 11005KT 7000 BKN030 02/00 Q1007
12:30
V
2 °C 10 km+ 3.100 ft Var Var 2 kt METAR EPKT 091130Z VRB02KT 9999 BKN031 02/M00 Q1007
12:00
V
2 °C 9 km 3.800 ft Var Var 2 kt METAR EPKT 091100Z VRB02KT 9000 BKN038 02/01 Q1007
11:30
V
2 °C 10 km+ 3.500 ft Var Var 2 kt METAR EPKT 091030Z VRB02KT 9999 BKN035 02/M00 Q1007
11:00
V
2 °C 10 km+ - Var Var 1 kt METAR EPKT 091000Z VRB01KT 9999 SCT041 02/M00 Q1008
10:30
V
1 °C 10 km+ - 180° 180° 3 kt METAR EPKT 090930Z 18003KT 9999 SCT041 01/M00 Q1008
10:00
V
1 °C 10 km+ - 190° 190° 3 kt METAR EPKT 090900Z 19003KT 160V220 CAVOK 01/M01 Q1008
09:30
V
2 °C 10 km+ - 200° 200° 3 kt METAR EPKT 090830Z 20003KT CAVOK 02/M00 Q1008
09:00
M
0 °C 6 km - 160° 160° 3 kt METAR EPKT 090800Z 16003KT 6000 NSC 00/M00 Q1008
08:30
M
0 °C 6 km - 150° 150° 3 kt METAR EPKT 090730Z 15003KT 6000 NSC 00/M01 Q1008
08:00
M
0 °C 6 km - 180° 180° 4 kt METAR EPKT 090700Z 18004KT 6000 NSC 00/M00 Q1008
07:30
V
1 °C 8 km - 200° 200° 6 kt METAR EPKT 090630Z 20006KT 8000 NSC 01/M00 Q1008
07:00
V
1 °C 8 km - 190° 190° 5 kt METAR EPKT 090600Z 19005KT 8000 NSC 01/M00 Q1008
06:30
V
1 °C 9 km - 210° 210° 5 kt METAR EPKT 090530Z 21005KT 9000 NSC 01/00 Q1008
06:00
V
1 °C 8 km - 200° 200° 6 kt METAR EPKT 090500Z 20006KT 8000 NSC 01/00 Q1008
05:30
V
1 °C 9 km - 200° 200° 6 kt METAR EPKT 090430Z 20006KT 9000 NSC 01/00 Q1008
05:00
V
1 °C 9 km - 200° 200° 6 kt METAR EPKT 090400Z 20006KT 9000 NSC 01/00 Q1008
04:30
M
1 °C 7 km - 200° 200° 6 kt METAR EPKT 090330Z 20006KT 7000 NSC 01/00 Q1008
04:00
M
1 °C 7 km - 200° 200° 7 kt METAR EPKT 090300Z 20007KT 7000 NSC 01/00 Q1008
03:30
V
1 °C 8 km - 210° 210° 6 kt METAR EPKT 090230Z 21006KT 8000 NSC 01/00 Q1008
03:00
M
1 °C 7 km - 210° 210° 5 kt METAR EPKT 090200Z 21005KT 7000 NSC 01/00 Q1008
02:30
M
1 °C 7 km - 210° 210° 5 kt METAR EPKT 090130Z 21005KT 7000 NSC 01/00 Q1009
02:00
M
1 °C 7 km - 210° 210° 6 kt METAR EPKT 090100Z 21006KT 7000 NSC 01/M00 Q1009
01:30
V
1 °C 8 km - 190° 190° 6 kt METAR EPKT 090030Z 19006KT 8000 NSC 01/M00 Q1008
01:00
M
1 °C 8 km 2.700 ft 190° 190° 5 kt METAR EPKT 090000Z 19005KT 8000 SCT022 BKN027 01/00 Q1008
00:30
M
1 °C 7 km 2.300 ft 190° 190° 4 kt METAR EPKT 082330Z 19004KT 7000 BKN023 01/00 Q1008
00:00
M
1 °C 7 km 2.500 ft 190° 190° 4 kt METAR EPKT 082300Z 19004KT 7000 BKN025 01/00 Q1009

8 grudnia 2022

Czas Kod Pogoda Temp. Widoczność Sufit Wiatr METAR/SPECI
23:30
M
1 °C 7 km 2.600 ft 170° 170° 4 kt METAR EPKT 082230Z 17004KT 7000 BKN026 01/00 Q1009
23:00
M
1 °C 7 km 2.700 ft 180° 180° 5 kt METAR EPKT 082200Z 18005KT 7000 FEW005 BKN027 01/00 Q1009
22:30
M
2 °C 7 km 2.800 ft 190° 190° 6 kt METAR EPKT 082130Z 19006KT 7000 -RA FEW005 OVC028 02/00 Q1009
22:00
M
1 °C 6 km 2.800 ft 180° 180° 4 kt METAR EPKT 082100Z 18004KT 160V260 6000 OVC028 01/00 Q1009
21:30
I
1 °C 4,6 km 2.700 ft 180° 180° 3 kt METAR EPKT 082030Z 18003KT 4600 -RASN BR FEW003 OVC027 01/00 Q1009
21:00
M
1 °C 6 km 3.400 ft Var Var 2 kt METAR EPKT 082000Z VRB02KT 6000 -RASN FEW006 OVC034 01/00 Q1009
20:30
M
1 °C 6 km 3.600 ft 160° 160° 2 kt METAR EPKT 081930Z 16002KT 6000 -RASN OVC036 01/01 Q1009
20:00
M
1 °C 7 km 3.700 ft 150° 150° 4 kt METAR EPKT 081900Z 15004KT 7000 -RASN OVC037 01/00 Q1009
19:30
M
1 °C 6 km 3.900 ft 160° 160° 5 kt METAR EPKT 081830Z 16005KT 6000 -RASN OVC039 01/00 Q1009
19:00
I
1 °C 4,7 km 4.000 ft 150° 150° 6 kt METAR EPKT 081800Z 15006KT 4700 -RASN BR OVC040 01/01 Q1009
18:30
M
1 °C 5 km 3.700 ft 160° 160° 6 kt METAR EPKT 081730Z 16006KT 5000 -SNRA BR OVC037 01/01 Q1009
18:00
M
1 °C 6 km 3.800 ft 170° 170° 6 kt METAR EPKT 081700Z 17006KT 6000 -SN BKN038 01/00 Q1009
17:30
M
1 °C 7 km 4.000 ft 180° 180° 6 kt METAR EPKT 081630Z 18006KT 7000 -SN FEW031 BKN040 01/00 Q1009
17:00
V
1 °C 10 km+ 4.000 ft 200° 200° 9 kt METAR EPKT 081600Z 20009KT 9999 -RASN FEW035 BKN040 01/00 Q1009
16:30
V
2 °C 10 km+ 3.400 ft 200° 200° 11 kt METAR EPKT 081530Z 20011KT 9999 -SN FEW009 BKN034 02/00 Q1009
16:00
M
2 °C 10 km+ 2.600 ft 190° 190° 11 kt METAR EPKT 081500Z 19011KT 9999 -RASN SCT016 BKN026 02/00 Q1009
15:30
M
2 °C 10 km+ 2.900 ft 200° 200° 8 kt METAR EPKT 081430Z 20008KT 9999 -RA FEW006 BKN029 02/00 Q1009
15:00
M
2 °C 10 km+ 2.900 ft 220° 220° 10 kt METAR EPKT 081400Z 22010KT 9999 -RA FEW006 SCT015 BKN029 02/00 Q1009
14:30
V
3 °C 10 km+ - 200° 200° 11 kt METAR EPKT 081330Z 20011KT 9999 -RA FEW014 SCT043 03/M01 Q1009
14:00
V
3 °C 10 km+ 3.800 ft 190° 190° 10 kt METAR EPKT 081300Z 19010KT 9999 FEW033 BKN038 03/M01 Q1009
13:30
V
3 °C 10 km+ - 200° 200° 14 kt METAR EPKT 081230Z 20014KT 9999 FEW026 03/M01 Q1009
13:00
V
3 °C 10 km+ - 200° 200° 15 kt METAR EPKT 081200Z 20015KT 9999 FEW035 03/M01 Q1009
12:30
V
3 °C 10 km+ - 200° 200° 11 kt METAR EPKT 081130Z 20011KT CAVOK 03/M01 Q1009
12:00
V
3 °C 10 km+ - 190° 190° 9 kt METAR EPKT 081100Z 19009KT CAVOK 03/M01 Q1009
11:30
V
3 °C 10 km+ - 190° 190° 10 kt METAR EPKT 081030Z 19010KT CAVOK 03/M01 Q1010
11:00
V
2 °C 10 km+ - 200° 200° 10 kt METAR EPKT 081000Z 20010KT CAVOK 02/M01 Q1010
10:30
V
2 °C 10 km+ - 200° 200° 9 kt METAR EPKT 080930Z 20009KT CAVOK 02/M01 Q1010
10:00
V
2 °C 10 km+ - 210° 210° 7 kt METAR EPKT 080900Z 21007KT CAVOK 02/M01 Q1011
09:30
V
2 °C 10 km+ - 200° 200° 7 kt METAR EPKT 080830Z 20007KT 150V220 CAVOK 02/M01 Q1011
09:00
V
1 °C 10 km+ - 180° 180° 5 kt METAR EPKT 080800Z 18005KT CAVOK 01/M01 Q1011
08:30
V
1 °C 10 km+ - 210° 210° 5 kt METAR EPKT 080730Z 21005KT CAVOK 01/M01 Q1011
08:00
V
1 °C 10 km+ - 200° 200° 5 kt METAR EPKT 080700Z 20005KT 190V250 9999 FEW049 01/M01 Q1011
07:30
V
1 °C 10 km+ - 210° 210° 5 kt METAR EPKT 080630Z 21005KT 9999 SCT043 01/M01 Q1010
07:00
V
1 °C 10 km+ - 210° 210° 8 kt METAR EPKT 080600Z 21008KT 200V260 9999 FEW033 01/M01 Q1010
06:30
V
1 °C 10 km+ - 210° 210° 8 kt METAR EPKT 080530Z 21008KT 9999 -SN FEW007 01/M01 Q1010
06:00
V
1 °C 10 km+ - 210° 210° 7 kt METAR EPKT 080500Z 21007KT CAVOK 01/M01 Q1010
05:30
V
1 °C 10 km+ - 220° 220° 7 kt METAR EPKT 080430Z 22007KT 9999 -SN FEW022 01/M01 Q1010
05:00
V
1 °C 10 km+ 4.800 ft 220° 220° 8 kt METAR EPKT 080400Z 22008KT 9999 -SN FEW025 SCT032 BKN048 01/M01 Q1010
04:30
V
1 °C 10 km+ 4.100 ft 210° 210° 6 kt METAR EPKT 080330Z 21006KT 9999 SCT029 OVC041 01/M01 Q1010
04:00
V
1 °C 10 km+ 4.200 ft 210° 210° 7 kt METAR EPKT 080300Z 21007KT 9999 SCT032 OVC042 01/M00 Q1010
03:30
V
1 °C 10 km+ 3.100 ft 220° 220° 8 kt METAR EPKT 080230Z 22008KT 9999 -SN FEW014 SCT028 BKN031 01/M01 Q1010
03:00
M
1 °C 10 km+ 2.100 ft 220° 220° 9 kt METAR EPKT 080200Z 22009KT 9999 -SN BKN021 OVC027 01/M00 Q1010
02:30
M
1 °C 10 km+ 2.600 ft 220° 220° 8 kt METAR EPKT 080130Z 22008KT 9999 FEW023 BKN026 OVC039 01/M01 Q1011
02:00
M
1 °C 10 km+ 2.300 ft 220° 220° 9 kt METAR EPKT 080100Z 22009KT 9999 OVC023 01/M01 Q1010
01:30
M
1 °C 10 km+ 2.500 ft 220° 220° 8 kt METAR EPKT 080030Z 22008KT 9999 OVC025 01/M01 Q1010
01:00
V
0 °C 10 km+ 3.000 ft 220° 220° 7 kt METAR EPKT 080000Z 22007KT 9999 SCT026 BKN030 00/M01 Q1010
00:30
M
1 °C 9 km 2.600 ft 220° 220° 8 kt METAR EPKT 072330Z 22008KT 9000 FEW022 BKN026 01/M00 Q1010
00:00
M
1 °C 9 km 2.800 ft 220° 220° 9 kt METAR EPKT 072300Z 22009KT 9000 SCT024 BKN028 01/M00 Q1010

7 grudnia 2022

Czas Kod Pogoda Temp. Widoczność Sufit Wiatr METAR/SPECI
23:30
V
1 °C 10 km+ 3.400 ft 220° 220° 9 kt METAR EPKT 072230Z 22009KT 9999 -SN SCT020 BKN034 01/M00 Q1010
23:00
I
1 °C 9 km 600 ft 220° 220° 9 kt METAR EPKT 072200Z 22009KT 9000 -SN SCT004 BKN006 01/00 Q1010
22:30
L
1 °C 10 km+ 400 ft 230° 230° 11 kt METAR EPKT 072130Z 23011KT 9999 -SN OVC004 01/00 Q1010
22:00
I
1 °C 10 km+ 800 ft 230° 230° 11 kt METAR EPKT 072100Z 23011KT 9999 -SN SCT007 OVC008 01/M00 Q1010
21:30
M
1 °C 10 km+ 1.900 ft 230° 230° 9 kt METAR EPKT 072030Z 23009KT 9999 SCT012 BKN019 01/M00 Q1010
21:00
M
1 °C 10 km+ 2.400 ft 240° 240° 6 kt METAR EPKT 072000Z 24006KT 9999 -SN FEW018 OVC024 01/00 Q1010
20:30
M
0 °C 9 km 2.900 ft 240° 240° 6 kt METAR EPKT 071930Z 24006KT 9000 -SHSN FEW015CB BKN029 00/M00 Q1010 RESHSN
20:00
M
0 °C 6 km 1.000 ft 230° 230° 8 kt METAR EPKT 071900Z 23008KT 6000 -SHSN SCT003 BKN010CB 00/M00 Q1010 RESHSN
19:30
M
1 °C 7 km 2.400 ft 240° 240° 9 kt METAR EPKT 071830Z 24009KT 7000 -SHSN FEW013 SCT019CB BKN024 01/M00 Q1010
19:00
V
1 °C 10 km+ 3.500 ft 220° 220° 9 kt METAR EPKT 071800Z 22009KT 190V260 9999 -SHSN FEW030CB BKN035 01/M01 Q1010
18:30
V
2 °C 10 km+ 3.400 ft 220° 220° 10 kt METAR EPKT 071730Z 22010KT 9999 -SN OVC034 02/M00 Q1009
18:00
V
2 °C 10 km+ 3.400 ft 220° 220° 11 kt METAR EPKT 071700Z 22011KT 9999 OVC034 02/M01 Q1009
17:30
V
2 °C 10 km+ 4.000 ft 220° 220° 11 kt METAR EPKT 071630Z 22011KT 9999 OVC040 02/M00 Q1009
17:00
V
2 °C 10 km+ 3.700 ft 220° 220° 10 kt METAR EPKT 071600Z 22010KT 9999 OVC037 02/M00 Q1009
16:30
V
2 °C 10 km+ 4.200 ft 230° 230° 10 kt METAR EPKT 071530Z 23010KT 9999 OVC042 02/00 Q1009
16:00
V
2 °C 10 km+ 3.700 ft 230° 230° 9 kt METAR EPKT 071500Z 23009KT 9999 SCT026 BKN037 02/01 Q1009
15:30
M
2 °C 10 km+ 2.400 ft 240° 240° 10 kt METAR EPKT 071430Z 24010KT 9999 -SHRA SCT016CB BKN024 02/00 Q1009
15:00
M
2 °C 10 km+ 2.000 ft 230° 230° 9 kt METAR EPKT 071400Z 23009KT 9999 -SHRA FEW017CB BKN020 02/01 Q1009
14:30
V
2 °C 10 km+ 4.000 ft 220° 220° 9 kt METAR EPKT 071330Z 22009KT 9999 SCT031 OVC040 02/01 Q1009
14:00
V
2 °C 10 km+ 3.900 ft 230° 230° 10 kt METAR EPKT 071300Z 23010KT 9999 FEW013 BKN039 02/01 Q1009
13:30
V
2 °C 10 km+ 3.500 ft 240° 240° 11 kt METAR EPKT 071230Z 24011KT 9999 FEW009 BKN035 02/01 Q1009
13:00
V
2 °C 9 km - 230° 230° 9 kt METAR EPKT 071200Z 23009KT 9000 NSC 02/01 Q1009
12:30
M
1 °C 6 km 3.600 ft 230° 230° 8 kt METAR EPKT 071130Z 23008KT 6000 FEW004 BKN036 01/01 Q1009
12:00
I
1 °C 7 km 600 ft 220° 220° 7 kt METAR EPKT 071100Z 22007KT 190V260 7000 SCT004 BKN006 01/01 Q1009
11:30
I
1 °C 7 km 900 ft 220° 220° 8 kt METAR EPKT 071030Z 22008KT 7000 SCT004 BKN009 01/00 Q1010
11:00
L
1 °C 8 km 300 ft 240° 240° 9 kt METAR EPKT 071000Z 24009KT 8000 -SN OVC003 01/00 Q1010

My i strony trzecie śledzimy Twoje zachowanie internetowe na naszej stronie za pomocą plików cookie. Jeśli kontynuujesz, zakładamy, że zgadzasz się z naszymi polityka plików cookie.